Time;durP1;ratioP1;P1;durP2;ratioP2;P2;SDS_P1;SDS_P2;PMS_P1;PMS_P2;Temp;Humidity;BMP_temperature;BMP_pressure;BME280_temperature;BME280_humidity;BME280_pressure;Samples;Min_cycle;Max_cycle;Signal;HPM_P1;HPM_P2
2021/08/14 00:00:50;;;;;;;13.63;9.15;;;;;;;16.49;80.84;100236.19;5051382;28;20090;-62
2021/08/14 00:03:15;;;;;;;19.92;9.60;;;;;;;16.40;81.16;100240.97;5053751;28;20045;-59
2021/08/14 00:05:41;;;;;;;12.68;10.05;;;;;;;16.31;81.46;100241.31;5034949;28;20053;-61
2021/08/14 00:08:07;;;;;;;18.88;9.68;;;;;;;16.15;82.13;100231.38;5051096;28;20414;-62
2021/08/14 00:10:33;;;;;;;22.08;10.30;;;;;;;16.13;82.38;100245.53;5048234;28;20049;-60
2021/08/14 00:12:59;;;;;;;26.50;10.02;;;;;;;16.06;82.72;100246.69;5000697;28;20052;-61
2021/08/14 00:15:24;;;;;;;18.25;10.95;;;;;;;15.96;82.97;100251.47;5037009;28;20100;-62
2021/08/14 00:17:50;;;;;;;19.35;11.05;;;;;;;15.96;83.17;100256.75;5043765;28;20087;-61
2021/08/14 00:20:16;;;;;;;19.17;10.25;;;;;;;15.95;83.60;100256.81;5037575;28;20090;-59
2021/08/14 00:22:42;;;;;;;16.80;10.95;;;;;;;15.91;83.58;100260.47;5034420;28;20123;-62
2021/08/14 00:25:08;;;;;;;17.67;10.32;;;;;;;15.80;83.84;100248.53;5043437;28;20080;-62
2021/08/14 00:27:34;;;;;;;20.95;10.70;;;;;;;15.85;84.06;100272.13;5034941;28;20079;-62
2021/08/14 00:29:59;;;;;;;15.75;10.60;;;;;;;15.81;83.99;100270.50;5050890;28;20045;-60
2021/08/14 00:32:26;;;;;;;17.75;10.68;;;;;;;15.73;83.99;100264.66;5017998;28;20398;-62
2021/08/14 00:34:51;;;;;;;17.40;10.32;;;;;;;15.78;83.96;100278.53;5052488;28;20051;-61
2021/08/14 00:37:17;;;;;;;17.65;10.75;;;;;;;15.69;84.23;100274.47;5052233;28;20048;-60
2021/08/14 00:39:43;;;;;;;16.33;10.82;;;;;;;15.54;84.68;100254.72;5052082;28;20044;-61
2021/08/14 00:42:08;;;;;;;15.85;11.32;;;;;;;15.65;84.70;100277.28;4999325;28;20086;-62
2021/08/14 00:44:35;;;;;;;17.88;10.73;;;;;;;15.64;84.69;100281.69;5034103;28;20521;-60
2021/08/14 00:47:04;;;;;;;15.40;10.90;;;;;;;15.57;84.53;100265.19;5049216;28;20041;-62
2021/08/14 00:49:30;;;;;;;14.25;10.48;;;;;;;15.81;83.88;100291.63;5017562;28;20037;-62
2021/08/14 00:51:56;;;;;;;19.65;11.02;;;;;;;15.76;83.90;100280.38;5051397;28;20036;-61
2021/08/14 00:54:22;;;;;;;17.52;11.10;;;;;;;15.71;84.21;100288.47;5051848;28;20120;-61
2021/08/14 00:56:48;;;;;;;18.95;10.90;;;;;;;15.52;84.44;100272.38;5033053;28;20083;-62
2021/08/14 00:59:14;;;;;;;15.63;10.20;;;;;;;15.60;84.91;100285.31;5001755;28;20045;-61
2021/08/14 01:01:39;;;;;;;16.08;10.90;;;;;;;15.57;84.92;100285.38;5049932;28;20048;-63
2021/08/14 01:04:11;;;;;;;18.50;11.63;;;;;;;15.56;84.76;100278.41;5051450;28;20684;-60
2021/08/14 01:06:37;;;;;;;15.80;11.07;;;;;;;15.52;84.83;100280.28;5017646;28;20418;-61
2021/08/14 01:09:03;;;;;;;20.48;10.77;;;;;;;15.53;84.79;100283.78;5050340;28;20045;-62
2021/08/14 01:11:29;;;;;;;22.67;12.00;;;;;;;15.48;84.61;100273.41;5017079;28;20122;-62
2021/08/14 01:13:56;;;;;;;30.25;12.18;;;;;;;15.44;85.05;100273.56;5051151;28;20541;-61
2021/08/14 01:16:22;;;;;;;16.40;11.38;;;;;;;15.41;85.16;100269.25;5049810;28;20505;-61
2021/08/14 01:18:48;;;;;;;16.73;10.90;;;;;;;15.42;85.15;100276.25;5016685;28;20549;-61
2021/08/14 01:21:19;;;;;;;16.85;11.63;;;;;;;15.41;84.90;100274.53;5049860;28;20055;-61
2021/08/14 01:23:47;;;;;;;23.98;11.65;;;;;;;15.35;84.85;100258.94;5050553;28;20057;-60
2021/08/14 01:26:14;;;;;;;19.73;12.07;;;;;;;15.41;84.58;100279.81;4999745;28;20135;-58
2021/08/14 01:28:40;;;;;;;15.25;9.00;;;;;;;15.95;83.27;100291.97;5050237;28;20049;-60
2021/08/14 01:31:07;;;;;;;12.10;7.93;;;;;;;16.71;79.36;100289.03;5050066;28;20506;-61
2021/08/14 01:33:35;;;;;;;12.88;7.75;;;;;;;17.66;74.99;100274.41;5031886;28;20084;-61
2021/08/14 01:36:10;;;;;;;13.15;7.32;;;;;;;17.62;74.90;100286.06;5049106;28;20045;-61
2021/08/14 01:38:52;;;;;;;12.27;7.50;;;;;;;17.13;76.09;100272.34;5050454;28;20044;-61
2021/08/14 01:41:19;;;;;;;12.60;8.68;;;;;;;16.60;78.75;100277.16;5049973;28;20118;-60
2021/08/14 01:44:06;;;;;;;11.65;9.23;;;;;;;16.17;80.41;100287.59;5048365;28;20855;-61
2021/08/14 01:46:39;;;;;;;16.70;8.80;;;;;;;16.41;79.78;100284.94;5031970;28;20043;-61
2021/08/14 01:49:05;;;;;;;15.98;7.72;;;;;;;16.92;76.83;100260.84;5050412;28;20080;-59
2021/08/14 01:51:31;;;;;;;15.38;7.30;;;;;;;17.40;75.24;100286.16;5016276;28;20126;-61
2021/08/14 01:53:58;;;;;;;14.13;7.75;;;;;;;17.16;75.36;100266.91;5015698;28;20041;-60
2021/08/14 01:56:25;;;;;;;10.13;8.05;;;;;;;16.68;78.01;100297.06;5014959;28;20519;-60
2021/08/14 01:58:51;;;;;;;10.07;9.07;;;;;;;16.20;79.69;100295.38;5050760;28;20088;-61
2021/08/14 02:01:18;;;;;;;16.23;9.82;;;;;;;15.95;81.28;100286.69;5050026;28;20048;-61
2021/08/14 02:03:46;;;;;;;16.25;11.07;;;;;;;15.71;81.95;100277.03;5047994;28;20048;-57
2021/08/14 02:06:12;;;;;;;15.65;9.90;;;;;;;15.68;82.75;100282.44;5049594;28;20044;-61
2021/08/14 02:08:38;;;;;;;18.08;10.68;;;;;;;15.54;83.34;100286.38;5016418;28;20552;-60
2021/08/14 02:11:14;;;;;;;22.83;11.18;;;;;;;15.54;83.31;100282.88;5032926;28;20041;-60
2021/08/14 02:13:41;;;;;;;12.88;9.98;;;;;;;15.71;83.14;100293.72;5032987;28;20075;-62
2021/08/14 02:16:08;;;;;;;20.98;9.52;;;;;;;15.80;82.18;100271.44;5016837;28;20567;-62
2021/08/14 02:18:34;;;;;;;13.90;8.00;;;;;;;16.39;80.13;100297.34;5015895;28;20041;-60
2021/08/14 02:21:00;;;;;;;14.50;7.00;;;;;;;17.21;76.38;100291.38;5051426;28;20510;-60
2021/08/14 02:23:26;;;;;;;9.82;7.10;;;;;;;17.75;74.02;100280.19;5050191;28;20111;-58
2021/08/14 02:25:52;;;;;;;20.65;7.28;;;;;;;17.90;73.13;100270.72;5033324;28;20041;-60
2021/08/14 02:28:18;;;;;;;14.43;7.30;;;;;;;18.46;71.01;100288.38;5052017;28;20510;-60
2021/08/14 02:30:44;;;;;;;12.82;7.65;;;;;;;18.31;71.55;100289.13;5036485;28;20500;-60
2021/08/14 02:33:10;;;;;;;10.93;7.30;;;;;;;18.38;71.50;100285.25;5019752;28;20174;-62
2021/08/14 02:35:36;;;;;;;11.73;7.22;;;;;;;18.80;69.42;100282.34;5020969;28;20037;-60
2021/08/14 02:38:02;;;;;;;11.60;7.25;;;;;;;19.19;67.98;100282.16;5053514;28;20055;-60
2021/08/14 02:40:27;;;;;;;13.95;8.57;;;;;;;19.43;67.80;100290.66;5052317;28;20467;-61
2021/08/14 02:42:53;;;;;;;11.32;8.05;;;;;;;19.59;66.36;100290.75;5019425;28;20045;-60
2021/08/14 02:45:19;;;;;;;16.90;9.27;;;;;;;19.76;65.88;100290.72;5019806;28;20040;-61
2021/08/14 02:47:45;;;;;;;13.43;9.00;;;;;;;19.83;66.01;100286.78;5036943;28;20049;-61
2021/08/14 02:50:11;;;;;;;13.52;8.30;;;;;;;20.01;65.19;100279.63;5054847;28;20051;-61
2021/08/14 02:52:37;;;;;;;11.73;9.18;;;;;;;20.39;63.61;100284.66;5054589;28;20043;-60
2021/08/14 02:55:03;;;;;;;13.32;8.90;;;;;;;20.66;63.07;100292.91;5003357;28;20525;-61
2021/08/14 02:57:29;;;;;;;18.42;7.25;;;;;;;20.92;61.31;100281.66;5003896;28;20037;-60
2021/08/14 02:59:55;;;;;;;9.60;7.25;;;;;;;21.34;60.49;100283.59;5054572;28;20053;-62
2021/08/14 03:02:21;;;;;;;16.63;7.57;;;;;;;21.61;59.25;100278.44;5036448;28;20456;-61
2021/08/14 03:04:47;;;;;;;11.93;7.45;;;;;;;21.82;58.74;100287.75;5036454;28;20049;-61
2021/08/14 03:07:12;;;;;;;9.82;6.60;;;;;;;21.72;58.48;100270.66;5053606;28;20413;-62
2021/08/14 03:09:38;;;;;;;13.32;6.90;;;;;;;22.08;57.62;100293.31;5054844;28;20037;-61
2021/08/14 03:12:04;;;;;;;12.77;6.82;;;;;;;22.15;56.78;100283.97;5053254;28;20588;-61
2021/08/14 03:14:30;;;;;;;9.52;6.78;;;;;;;22.39;55.58;100271.75;5019829;28;20532;-61
2021/08/14 03:16:56;;;;;;;8.73;6.18;;;;;;;22.60;55.10;100284.66;5054557;28;20033;-59
2021/08/14 03:19:22;;;;;;;14.05;6.25;;;;;;;22.95;54.67;100298.38;5019743;28;20071;-60
2021/08/14 03:21:47;;;;;;;15.27;6.63;;;;;;;23.28;53.94;100287.25;5053121;28;20450;-64
2021/08/14 03:24:13;;;;;;;12.90;6.35;;;;;;;23.51;52.71;100294.53;5053580;28;20041;-60
2021/08/14 03:26:39;;;;;;;8.40;6.13;;;;;;;23.78;51.75;100281.13;5035635;28;20041;-60
2021/08/14 03:29:05;;;;;;;10.05;6.07;;;;;;;24.10;50.77;100294.91;5053544;28;20413;-61
2021/08/14 03:31:30;;;;;;;8.95;6.20;;;;;;;24.23;50.21;100294.88;5053275;28;20068;-61
2021/08/14 03:33:58;;;;;;;10.70;5.82;;;;;;;24.46;49.63;100296.75;5003345;28;20502;-62
2021/08/14 03:36:24;;;;;;;8.27;6.20;;;;;;;24.73;48.89;100296.56;5052737;28;20045;-61
2021/08/14 03:38:50;;;;;;;12.27;6.43;;;;;;;24.96;48.80;100301.06;5019332;28;20541;-61
2021/08/14 03:41:16;;;;;;;13.00;6.25;;;;;;;25.21;48.64;100302.78;5034451;28;20502;-60
2021/08/14 03:43:42;;;;;;;12.75;6.65;;;;;;;25.26;47.57;100295.25;5034264;28;20469;-60
2021/08/14 03:46:07;;;;;;;9.68;6.20;;;;;;;25.61;46.72;100308.63;5052600;28;20044;-60
2021/08/14 03:48:34;;;;;;;8.60;5.82;;;;;;;25.69;46.53;100308.06;5051970;28;20095;-61
2021/08/14 03:51:00;;;;;;;7.97;6.10;;;;;;;25.92;46.06;100300.91;5034941;28;20041;-62
2021/08/14 03:53:26;;;;;;;11.48;6.47;;;;;;;26.10;45.29;100309.34;5052151;28;20052;-60
2021/08/14 03:55:52;;;;;;;13.45;5.93;;;;;;;26.45;44.39;100306.53;5053415;28;20053;-61
2021/08/14 03:58:17;;;;;;;7.50;5.88;;;;;;;26.82;43.48;100305.22;5051918;28;20036;-61
2021/08/14 04:00:43;;;;;;;13.27;6.00;;;;;;;27.06;43.21;100301.50;5018158;28;20414;-62
2021/08/14 04:03:09;;;;;;;12.40;6.22;;;;;;;27.28;42.60;100300.56;5033067;28;20041;-60
2021/08/14 04:05:35;;;;;;;8.63;5.68;;;;;;;27.64;41.74;100310.03;5050946;28;20037;-62
2021/08/14 04:08:00;;;;;;;6.88;5.47;;;;;;;27.77;41.24;100302.63;5050855;28;20628;-61
2021/08/14 04:10:26;;;;;;;13.35;6.18;;;;;;;27.73;41.53;100311.94;5052666;28;20048;-61
2021/08/14 04:12:52;;;;;;;9.10;5.45;;;;;;;28.03;40.70;100301.19;5050674;28;20049;-61
2021/08/14 04:15:18;;;;;;;8.30;5.60;;;;;;;28.28;40.07;100318.75;5052926;28;20048;-62
2021/08/14 04:17:43;;;;;;;10.93;5.53;;;;;;;28.22;40.01;100305.78;5052126;28;20048;-62
2021/08/14 04:20:10;;;;;;;8.23;5.40;;;;;;;28.72;39.72;100317.44;5052586;28;20037;-59
2021/08/14 04:22:36;;;;;;;12.38;5.97;;;;;;;28.87;39.02;100306.28;5035253;28;20147;-62
2021/08/14 04:25:03;;;;;;;12.43;5.28;;;;;;;29.24;38.22;100318.09;5052498;28;20128;-61
2021/08/14 04:27:29;;;;;;;10.88;5.85;;;;;;;29.26;37.80;100321.50;5050300;28;20044;-62
2021/08/14 04:29:54;;;;;;;8.18;5.20;;;;;;;29.42;37.74;100316.38;5051187;28;20564;-61
2021/08/14 04:32:20;;;;;;;10.95;6.00;;;;;;;29.67;37.05;100308.69;5050693;28;20047;-62
2021/08/14 04:34:46;;;;;;;9.77;5.32;;;;;;;29.58;37.42;100314.97;5050190;28;20094;-63
2021/08/14 04:37:13;;;;;;;11.40;5.60;;;;;;;29.44;37.97;100313.56;5050375;28;20132;-61
2021/08/14 04:39:39;;;;;;;12.68;5.50;;;;;;;29.41;38.14;100313.81;5017198;28;20075;-60
2021/08/14 04:42:05;;;;;;;7.25;5.40;;;;;;;29.73;37.07;100303.59;5051734;28;20049;-61
2021/08/14 04:44:31;;;;;;;8.07;5.75;;;;;;;29.40;38.08;100320.22;5017940;28;20045;-62
2021/08/14 04:46:59;;;;;;;9.82;5.47;;;;;;;29.94;36.71;100319.56;5051692;28;20101;-65
2021/08/14 04:49:26;;;;;;;13.82;5.60;;;;;;;30.53;35.82;100318.34;5051438;28;20195;-62
2021/08/14 04:51:52;;;;;;;10.57;5.60;;;;;;;30.98;34.57;100320.22;5032276;28;20040;-61
2021/08/14 04:54:18;;;;;;;9.90;5.50;;;;;;;30.36;35.88;100308.34;5001885;28;20037;-62
2021/08/14 04:56:43;;;;;;;10.98;5.40;;;;;;;30.34;36.14;100310.34;5001353;28;20418;-62
2021/08/14 04:59:09;;;;;;;10.52;5.95;;;;;;;30.74;36.07;100311.84;5052852;28;20121;-62
2021/08/14 05:01:35;;;;;;;9.55;5.85;;;;;;;30.89;35.97;100313.03;5052578;28;20505;-63
2021/08/14 05:04:01;;;;;;;13.93;5.47;;;;;;;31.43;34.31;100311.19;5051758;28;20052;-62
2021/08/14 05:06:26;;;;;;;10.38;5.18;;;;;;;31.53;34.63;100314.66;5050734;28;20041;-62
2021/08/14 05:08:52;;;;;;;10.18;5.20;;;;;;;31.77;34.20;100312.13;5049289;28;20135;-63
2021/08/14 05:11:18;;;;;;;11.43;5.10;;;;;;;30.91;35.35;100295.66;5049199;28;20648;-61
2021/08/14 05:13:43;;;;;;;11.48;5.20;;;;;;;29.09;39.92;100300.66;5014133;28;20079;-61
2021/08/14 05:16:09;;;;;;;11.30;5.70;;;;;;;27.97;42.55;100320.56;5048484;28;20068;-62
2021/08/14 05:18:35;;;;;;;16.42;6.00;;;;;;;27.10;44.48;100316.38;5048351;28;20051;-61
2021/08/14 05:21:01;;;;;;;10.40;6.00;;;;;;;27.48;44.36;100319.34;5049536;28;20045;-63
2021/08/14 05:23:27;;;;;;;18.08;6.20;;;;;;;28.59;40.72;100316.84;5030887;28;20065;-62
2021/08/14 05:25:53;;;;;;;16.38;6.20;;;;;;;29.53;39.13;100317.25;5031606;28;20033;-62
2021/08/14 05:28:32;;;;;;;15.77;5.70;;;;;;;30.48;37.33;100323.34;5033092;28;20486;-61
2021/08/14 05:30:58;;;;;;;12.00;5.47;;;;;;;31.36;35.42;100318.22;5049630;28;20127;-62
2021/08/14 05:33:23;;;;;;;11.27;5.38;;;;;;;31.98;34.37;100305.50;5047498;28;20136;-63
2021/08/14 05:35:49;;;;;;;13.20;5.20;;;;;;;32.28;33.31;100323.97;4997381;28;20068;-62
2021/08/14 05:38:15;;;;;;;13.05;6.15;;;;;;;32.14;33.74;100327.25;5048228;28;20056;-63
2021/08/14 05:40:41;;;;;;;9.27;5.30;;;;;;;32.24;33.48;100319.88;5030871;28;21093;-62
2021/08/14 05:43:07;;;;;;;7.93;5.60;;;;;;;32.49;32.57;100327.09;5047098;28;20091;-61
2021/08/14 05:45:33;;;;;;;9.13;5.63;;;;;;;32.71;32.68;100303.97;5013699;28;20066;-61
2021/08/14 05:48:06;;;;;;;7.43;4.97;;;;;;;33.24;31.86;100301.84;5012737;28;20040;-63
2021/08/14 05:50:32;;;;;;;14.18;5.25;;;;;;;33.26;31.54;100324.22;5014099;28;20040;-60
2021/08/14 05:52:58;;;;;;;11.57;4.95;;;;;;;32.77;33.19;100333.16;5029947;28;20086;-62
2021/08/14 05:55:24;;;;;;;12.10;5.35;;;;;;;32.98;32.73;100324.56;5048325;28;20453;-65
2021/08/14 05:57:50;;;;;;;6.75;4.68;;;;;;;32.28;34.25;100317.69;5048309;28;20137;-63
2021/08/14 06:00:16;;;;;;;13.52;4.88;;;;;;;32.27;33.86;100316.84;5048927;28;20128;-61
2021/08/14 06:02:42;;;;;;;7.60;5.03;;;;;;;32.73;32.94;100326.34;5048550;28;20048;-63
2021/08/14 06:05:09;;;;;;;7.93;4.95;;;;;;;32.78;33.16;100317.75;5047683;28;20045;-63
2021/08/14 06:07:34;;;;;;;11.88;5.32;;;;;;;33.48;31.45;100329.03;5048749;28;20490;-61
2021/08/14 06:10:01;;;;;;;9.25;4.70;;;;;;;33.38;30.90;100317.47;5048880;28;20037;-61
2021/08/14 06:12:26;;;;;;;6.75;4.22;;;;;;;33.66;29.57;100332.41;5048920;28;20048;-61
2021/08/14 06:14:52;;;;;;;8.85;4.32;;;;;;;33.06;31.32;100332.69;5048921;28;20041;-62
2021/08/14 06:17:18;;;;;;;10.75;4.70;;;;;;;32.92;32.99;100332.50;5031279;28;20040;-62
2021/08/14 06:19:44;;;;;;;10.57;4.70;;;;;;;33.32;32.07;100319.00;5015112;28;20041;-61
2021/08/14 06:22:10;;;;;;;5.95;4.43;;;;;;;34.13;30.34;100328.09;5050237;28;20356;-66
2021/08/14 06:24:37;;;;;;;7.18;4.30;;;;;;;34.18;29.74;100318.38;5047935;28;20091;-62
2021/08/14 06:27:03;;;;;;;7.05;4.05;;;;;;;34.50;29.03;100309.28;5048036;28;20477;-62
2021/08/14 06:29:29;;;;;;;10.25;4.25;;;;;;;34.94;28.05;100323.19;5047223;28;20048;-62
2021/08/14 06:31:55;;;;;;;7.68;3.97;;;;;;;34.50;28.58;100322.03;5012591;28;20053;-62
2021/08/14 06:34:21;;;;;;;6.28;3.95;;;;;;;32.85;30.53;100316.91;5029306;28;20045;-62
2021/08/14 06:36:46;;;;;;;9.13;4.28;;;;;;;32.81;30.95;100320.97;5047639;28;20383;-61
2021/08/14 06:39:12;;;;;;;9.68;4.45;;;;;;;31.99;32.24;100324.31;5012056;28;20041;-62
2021/08/14 06:41:39;;;;;;;7.53;4.30;;;;;;;31.88;32.48;100316.44;5046580;28;20064;-61
2021/08/14 06:44:05;;;;;;;6.68;3.80;;;;;;;32.06;32.47;100314.53;5045967;28;20045;-62
2021/08/14 06:46:31;;;;;;;9.45;3.90;;;;;;;32.95;30.87;100313.19;5047911;28;20071;-62
2021/08/14 06:48:59;;;;;;;6.70;3.63;;;;;;;33.60;29.85;100311.38;5048305;28;20049;-63
2021/08/14 06:51:25;;;;;;;7.32;4.03;;;;;;;34.63;28.16;100308.72;5047813;28;20048;-61
2021/08/14 06:53:51;;;;;;;5.25;3.28;;;;;;;34.01;27.45;100309.44;5049090;28;20053;-60
2021/08/14 06:56:17;;;;;;;4.25;3.85;;;;;;;34.02;27.44;100302.16;5049536;28;20053;-62
2021/08/14 06:58:43;;;;;;;8.43;3.40;;;;;;;34.88;26.67;100306.72;5047702;28;20051;-62
2021/08/14 07:01:08;;;;;;;4.25;3.47;;;;;;;34.23;26.29;100304.31;5048037;28;20128;-65
2021/08/14 07:03:34;;;;;;;3.47;3.17;;;;;;;33.01;28.56;100307.97;5048477;28;20140;-61
2021/08/14 07:06:00;;;;;;;3.92;3.20;;;;;;;33.26;28.76;100310.66;5048584;28;20090;-63
2021/08/14 07:08:26;;;;;;;7.93;3.40;;;;;;;33.37;28.06;100294.94;5048461;28;20049;-62
2021/08/14 07:10:52;;;;;;;6.82;3.63;;;;;;;34.10;27.63;100310.25;5029576;28;20056;-62
2021/08/14 07:13:19;;;;;;;7.70;3.53;;;;;;;33.83;26.88;100306.09;5014184;28;20498;-65
2021/08/14 07:15:45;;;;;;;8.98;3.40;;;;;;;34.15;26.34;100313.31;5046435;28;20498;-64
2021/08/14 07:18:11;;;;;;;7.60;3.10;;;;;;;33.62;25.96;100312.06;5049904;28;20052;-63
2021/08/14 07:20:36;;;;;;;10.85;3.50;;;;;;;32.46;28.05;100316.59;5050373;28;20107;-62
2021/08/14 07:23:02;;;;;;;6.03;3.15;;;;;;;33.16;27.22;100321.69;5050801;28;20071;-63
2021/08/14 07:25:29;;;;;;;6.43;3.45;;;;;;;33.98;26.40;100320.66;5048719;28;20049;-64
2021/08/14 07:27:55;;;;;;;9.52;3.40;;;;;;;35.25;25.10;100308.66;5049398;28;20554;-65
2021/08/14 07:30:21;;;;;;;5.43;3.03;;;;;;;35.36;24.35;100305.53;5047897;28;20075;-64
2021/08/14 07:32:47;;;;;;;4.88;3.17;;;;;;;35.29;23.80;100326.31;5049396;28;20045;-65
2021/08/14 07:35:13;;;;;;;3.85;2.88;;;;;;;34.61;24.00;100324.34;5032532;28;20094;-64
2021/08/14 07:37:49;;;;;;;9.45;3.42;;;;;;;32.64;27.16;100321.88;5049948;28;20048;-63
2021/08/14 07:40:20;;;;;;;4.72;3.38;;;;;;;32.03;28.22;100314.00;5050806;28;20490;-64
2021/08/14 07:42:46;;;;;;;6.33;3.40;;;;;;;31.53;29.00;100315.50;5032295;28;20044;-63
2021/08/14 07:45:15;;;;;;;9.63;3.33;;;;;;;32.39;27.97;100312.84;5033138;28;20779;-65
2021/08/14 07:47:42;;;;;;;10.18;3.90;;;;;;;33.47;26.61;100305.63;5016586;28;20048;-63
2021/08/14 07:50:09;;;;;;;7.35;3.42;;;;;;;32.95;27.64;100305.91;5017016;28;20044;-62
2021/08/14 07:52:35;;;;;;;9.32;3.38;;;;;;;34.02;26.24;100315.72;5049895;28;20119;-62
2021/08/14 07:55:01;;;;;;;5.05;3.17;;;;;;;34.05;25.91;100309.94;5049997;28;20482;-62
2021/08/14 07:57:26;;;;;;;4.05;3.58;;;;;;;34.42;25.30;100317.50;5047338;28;20090;-62
2021/08/14 07:59:52;;;;;;;7.82;3.90;;;;;;;34.43;25.30;100319.19;5048213;28;20506;-64
2021/08/14 08:02:18;;;;;;;6.68;3.45;;;;;;;32.94;26.93;100301.50;5048706;28;20128;-62
2021/08/14 08:04:44;;;;;;;6.47;3.70;;;;;;;34.01;26.04;100323.03;5032325;28;20128;-61
2021/08/14 08:07:09;;;;;;;5.47;3.35;;;;;;;34.31;25.21;100309.69;5049179;28;20067;-64
2021/08/14 08:09:35;;;;;;;6.18;3.60;;;;;;;32.80;27.21;100307.59;5048226;28;20413;-60
2021/08/14 08:12:01;;;;;;;4.15;3.40;;;;;;;33.66;25.71;100323.41;5049841;28;20043;-64
2021/08/14 08:14:27;;;;;;;4.03;3.00;;;;;;;33.64;25.49;100322.75;5031654;28;20102;-64
2021/08/14 08:16:53;;;;;;;4.40;3.60;;;;;;;33.42;25.93;100318.84;5050131;28;20045;-64
2021/08/14 08:19:19;;;;;;;14.80;4.05;;;;;;;34.91;23.74;100323.50;5049644;28;20123;-62
2021/08/14 08:21:45;;;;;;;4.47;3.38;;;;;;;34.21;23.79;100312.63;5013961;28;20220;-62
2021/08/14 08:24:11;;;;;;;11.68;3.28;;;;;;;33.69;24.94;100320.34;5049205;28;20041;-62
2021/08/14 08:26:36;;;;;;;7.13;3.50;;;;;;;34.08;24.18;100328.59;5049429;28;20496;-64
2021/08/14 08:29:02;;;;;;;6.85;3.58;;;;;;;33.01;25.80;100320.66;5048947;28;20055;-64
2021/08/14 08:31:29;;;;;;;7.68;3.55;;;;;;;30.28;30.12;100309.09;5048086;28;20485;-63
2021/08/14 08:33:55;;;;;;;7.03;3.80;;;;;;;30.48;30.25;100317.09;4998984;28;20041;-59
2021/08/14 08:36:21;;;;;;;5.97;3.97;;;;;;;30.95;30.04;100325.91;5049743;28;20052;-63
2021/08/14 08:38:47;;;;;;;6.28;4.03;;;;;;;31.42;28.95;100313.03;5049552;28;20048;-62
2021/08/14 08:41:16;;;;;;;7.78;4.20;;;;;;;31.64;28.62;100314.38;5048915;28;20498;-64
2021/08/14 08:43:42;;;;;;;5.13;3.95;;;;;;;31.42;28.02;100307.63;5048200;28;20420;-62
2021/08/14 08:46:11;;;;;;;8.80;3.78;;;;;;;32.78;26.91;100313.19;5049778;28;20549;-64
2021/08/14 08:48:43;;;;;;;7.35;3.85;;;;;;;32.45;27.24;100312.19;5050064;28;20091;-63
2021/08/14 08:51:10;;;;;;;5.68;3.83;;;;;;;33.53;24.86;100315.81;5049958;28;20056;-64
2021/08/14 08:53:38;;;;;;;8.85;3.65;;;;;;;33.84;23.84;100313.22;5050473;28;20053;-63
2021/08/14 08:56:04;;;;;;;6.72;3.53;;;;;;;34.10;24.07;100296.69;5048137;28;20072;-65
2021/08/14 08:58:35;;;;;;;7.80;3.50;;;;;;;33.78;24.66;100293.03;5049516;28;20079;-63
2021/08/14 09:01:01;;;;;;;8.05;3.30;;;;;;;33.04;26.80;100302.19;5031112;28;20045;-66
2021/08/14 09:03:30;;;;;;;3.92;3.53;;;;;;;32.42;26.80;100301.69;5047265;28;20502;-63
2021/08/14 09:05:56;;;;;;;5.22;3.17;;;;;;;32.44;27.54;100305.06;5013849;28;20048;-63
2021/08/14 09:08:23;;;;;;;5.38;3.53;;;;;;;32.33;26.82;100289.13;5048057;28;20044;-63
2021/08/14 09:10:50;;;;;;;5.20;3.75;;;;;;;30.85;29.23;100285.47;5048878;28;20433;-64
2021/08/14 09:13:17;;;;;;;4.43;3.72;;;;;;;30.18;30.08;100294.78;5048440;28;20112;-62
2021/08/14 09:15:43;;;;;;;5.47;3.40;;;;;;;29.90;30.48;100293.03;5030826;28;20041;-63
2021/08/14 09:18:11;;;;;;;5.28;3.47;;;;;;;28.97;31.98;100274.81;5047868;28;20041;-62
2021/08/14 09:20:51;;;;;;;6.35;3.75;;;;;;;28.63;32.92;100285.97;4997287;28;20052;-63
2021/08/14 09:23:17;;;;;;;10.50;4.13;;;;;;;28.94;32.32;100293.97;5045180;28;20076;-65
2021/08/14 09:25:45;;;;;;;6.28;3.50;;;;;;;28.48;32.53;100288.22;5047637;28;20041;-63
2021/08/14 09:28:14;;;;;;;6.18;3.63;;;;;;;28.37;32.67;100284.78;5046805;28;20132;-67
2021/08/14 09:30:54;;;;;;;13.00;4.32;;;;;;;28.11;33.24;100285.22;5045798;28;20048;-65
2021/08/14 09:33:25;;;;;;;7.07;4.18;;;;;;;27.73;33.29;100263.53;4996792;28;20449;-63
2021/08/14 09:36:10;;;;;;;7.67;3.80;;;;;;;27.48;33.82;100276.38;5047605;28;20045;-63
2021/08/14 09:38:42;;;;;;;8.93;3.88;;;;;;;27.01;33.10;100283.09;5046532;28;20326;-63
2021/08/14 09:41:16;;;;;;;6.18;3.28;;;;;;;27.09;32.43;100266.34;5048535;28;20560;-64
2021/08/14 09:43:42;;;;;;;4.10;3.30;;;;;;;26.87;33.45;100276.16;4996035;28;20096;-63
2021/08/14 09:46:09;;;;;;;5.63;3.80;;;;;;;26.25;35.62;100275.91;5046483;28;20114;-69
2021/08/14 09:48:35;;;;;;;6.18;3.90;;;;;;;25.78;35.42;100261.78;5045804;28;20417;-63
2021/08/14 09:51:00;;;;;;;6.93;4.00;;;;;;;26.07;34.08;100272.88;5029484;28;20037;-63
2021/08/14 09:53:29;;;;;;;6.40;3.67;;;;;;;26.21;35.36;100259.22;5029689;28;20099;-64
2021/08/14 09:56:11;;;;;;;5.28;3.65;;;;;;;26.19;35.93;100269.22;5047422;28;20055;-64
2021/08/14 09:58:39;;;;;;;5.20;3.35;;;;;;;26.05;35.78;100255.22;5045941;28;20083;-64
2021/08/14 10:01:06;;;;;;;7.25;4.07;;;;;;;25.92;37.26;100249.97;5012904;28;20044;-65
2021/08/14 10:03:33;;;;;;;6.95;4.13;;;;;;;25.78;37.85;100264.47;5030092;28;20049;-65
2021/08/14 10:06:01;;;;;;;8.75;4.22;;;;;;;25.84;39.02;100265.81;5035965;28;20053;-66
2021/08/14 10:08:28;;;;;;;10.60;3.90;;;;;;;25.73;38.94;100265.78;5025742;28;20046;-66
2021/08/14 10:10:55;;;;;;;7.82;3.65;;;;;;;25.86;39.11;100253.97;5026060;28;20064;-65
2021/08/14 10:13:21;;;;;;;6.28;4.10;;;;;;;26.20;38.50;100270.91;5024779;28;20037;-65
2021/08/14 10:15:48;;;;;;;10.10;4.18;;;;;;;25.92;38.95;100261.53;5026664;28;20045;-63
2021/08/14 10:18:15;;;;;;;11.40;4.15;;;;;;;25.98;39.04;100265.56;4993719;28;20128;-62
2021/08/14 10:20:41;;;;;;;5.10;4.53;;;;;;;25.89;38.74;100263.59;5026688;28;20049;-62
2021/08/14 10:23:09;;;;;;;6.88;4.43;;;;;;;25.94;39.06;100272.13;5026495;28;20065;-68
2021/08/14 10:25:38;;;;;;;8.30;5.07;;;;;;;25.79;39.89;100262.63;5009837;28;20041;-70
2021/08/14 10:28:06;;;;;;;8.40;4.22;;;;;;;25.69;39.77;100242.88;5026535;28;20136;-63
2021/08/14 10:30:41;;;;;;;7.88;4.70;;;;;;;25.86;38.70;100266.53;5026764;28;20042;-65
2021/08/14 10:33:09;;;;;;;6.90;4.75;;;;;;;25.86;39.12;100245.09;5026469;28;20061;-66
2021/08/14 10:35:36;;;;;;;13.30;4.20;;;;;;;25.95;38.25;100250.56;5010438;28;20553;-73
2021/08/14 10:38:03;;;;;;;17.75;4.80;;;;;;;26.01;37.23;100259.09;5028058;28;20080;-65
2021/08/14 10:41:00;;;;;;;6.60;4.40;;;;;;;26.27;36.19;100252.50;5029095;28;20044;-65
2021/08/14 10:43:54;;;;;;;6.45;3.80;;;;;;;26.25;35.84;100247.25;5008891;28;20127;-64
2021/08/14 10:46:44;;;;;;;4.55;3.90;;;;;;;26.24;37.25;100256.28;5025604;28;20053;-64
2021/08/14 10:49:33;;;;;;;9.32;4.30;;;;;;;26.35;36.75;100246.53;5027376;28;20049;-70
2021/08/14 10:52:01;;;;;;;8.68;4.47;;;;;;;26.33;36.88;100248.50;5025369;28;20057;-68
2021/08/14 10:54:28;;;;;;;6.25;4.28;;;;;;;26.37;37.28;100247.28;5030512;28;20041;-68
2021/08/14 10:56:56;;;;;;;10.30;4.00;;;;;;;26.29;37.54;100246.03;5031351;28;20118;-69
2021/08/14 10:59:38;;;;;;;8.15;4.45;;;;;;;26.13;38.44;100252.78;5030311;28;20092;-69
2021/08/14 11:02:09;;;;;;;5.32;3.80;;;;;;;26.11;38.77;100246.69;5031431;28;20467;-70
2021/08/14 11:04:39;;;;;;;6.75;4.07;;;;;;;26.25;38.21;100241.03;5030751;28;20461;-70
2021/08/14 11:07:19;;;;;;;6.75;4.57;;;;;;;26.34;38.01;100228.75;5031013;28;20041;-63
2021/08/14 11:10:01;;;;;;;5.57;3.92;;;;;;;26.26;37.90;100226.66;5030535;28;20076;-63
2021/08/14 11:12:34;;;;;;;;;;;;;;;26.11;37.80;100231.44;5030997;28;20048;-61
2021/08/14 11:15:15;;;;;;;6.25;3.83;;;;;;;25.86;38.39;100216.44;5014900;28;19928;-64
2021/08/14 11:17:41;;;;;;;10.95;4.30;;;;;;;25.78;38.90;100228.75;5013473;28;20065;-63
2021/08/14 11:20:19;;;;;;;10.73;4.60;;;;;;;25.68;37.81;100225.09;5031429;28;20176;-63